createdAt,value
2022-07-25T00:00:55.009Z,99.99
2022-07-25T00:01:54.975Z,99.99
2022-07-25T00:02:54.950Z,99.99
2022-07-25T00:03:55.121Z,99.99
2022-07-25T00:04:55.011Z,99.99
2022-07-25T00:05:55.105Z,99.99
2022-07-25T00:06:55.025Z,99.99
2022-07-25T00:07:55.098Z,99.99
2022-07-25T00:08:54.852Z,99.99
2022-07-25T00:09:55.102Z,99.99
2022-07-25T00:10:54.813Z,99.99
2022-07-25T00:11:54.893Z,99.99
2022-07-25T00:12:54.935Z,99.99
2022-07-25T00:13:54.805Z,99.99
2022-07-25T00:14:54.744Z,99.99
2022-07-25T00:15:54.854Z,99.99
2022-07-25T00:16:54.933Z,99.99
2022-07-25T00:17:54.797Z,99.99
2022-07-25T00:18:54.718Z,99.99
2022-07-25T00:19:54.708Z,99.99
2022-07-25T00:20:54.961Z,99.99
2022-07-25T00:21:54.806Z,99.99
2022-07-25T00:22:54.737Z,99.99
2022-07-25T00:23:54.767Z,99.99
2022-07-25T00:24:54.629Z,99.99
2022-07-25T00:25:54.633Z,99.99
2022-07-25T00:26:54.612Z,99.99
2022-07-25T00:27:54.606Z,99.99
2022-07-25T00:28:54.644Z,99.99
2022-07-25T00:29:54.571Z,99.99
2022-07-25T00:30:54.715Z,99.99
2022-07-25T00:31:54.541Z,99.99
2022-07-25T00:32:54.612Z,99.99
2022-07-25T00:33:54.501Z,99.99
2022-07-25T00:34:54.547Z,99.99
2022-07-25T00:35:54.527Z,99.99
2022-07-25T00:36:54.468Z,99.99
2022-07-25T00:37:54.468Z,99.99
2022-07-25T00:38:54.447Z,99.99
2022-07-25T00:39:54.478Z,99.99
2022-07-25T00:40:55.665Z,99.99
2022-07-25T00:41:54.459Z,99.99
2022-07-25T00:42:54.409Z,99.99
2022-07-25T00:43:54.458Z,99.99
2022-07-25T00:44:54.406Z,99.99
2022-07-25T00:45:54.489Z,99.99
2022-07-25T00:46:54.551Z,99.99
2022-07-25T00:47:54.463Z,99.99
2022-07-25T00:48:54.402Z,99.99
2022-07-25T00:49:54.452Z,99.99
2022-07-25T00:50:54.302Z,99.99
2022-07-25T00:51:54.533Z,99.99
2022-07-25T00:52:54.292Z,99.99
2022-07-25T00:53:54.452Z,99.99
2022-07-25T00:54:54.299Z,99.99
2022-07-25T00:55:54.468Z,99.99
2022-07-25T00:56:54.297Z,99.99
2022-07-25T00:57:54.245Z,99.99
2022-07-25T00:58:54.308Z,99.99
2022-07-25T00:59:54.176Z,99.99
2022-07-25T01:00:54.147Z,99.99
2022-07-25T01:01:54.179Z,99.99
2022-07-25T01:02:54.459Z,99.99
2022-07-25T01:03:54.140Z,99.99
2022-07-25T01:04:54.325Z,99.99
2022-07-25T01:05:54.177Z,99.99
2022-07-25T01:06:54.093Z,99.99
2022-07-25T01:07:54.146Z,99.99
2022-07-25T01:08:54.386Z,99.99
2022-07-25T01:09:54.134Z,99.99
2022-07-25T01:10:54.045Z,99.99
2022-07-25T01:11:54.133Z,99.99
2022-07-25T01:12:54.013Z,99.99
2022-07-25T01:13:54.031Z,99.99
2022-07-25T01:14:53.966Z,99.99
2022-07-25T01:15:54.211Z,99.99
2022-07-25T01:16:53.985Z,99.99
2022-07-25T01:17:53.927Z,99.99
2022-07-25T01:18:53.978Z,99.99
2022-07-25T01:19:54.226Z,99.99
2022-07-25T01:20:54.048Z,99.99
2022-07-25T01:21:53.946Z,99.99
2022-07-25T01:22:53.967Z,99.99
2022-07-25T01:23:54.126Z,99.99
2022-07-25T01:24:53.822Z,99.99
2022-07-25T01:25:53.846Z,99.99
2022-07-25T01:26:54.060Z,99.99
2022-07-25T01:27:55.705Z,99.99
2022-07-25T01:28:53.805Z,99.99
2022-07-25T01:29:53.812Z,99.99
2022-07-25T01:30:53.843Z,99.99
2022-07-25T01:31:53.812Z,99.99
2022-07-25T01:32:53.769Z,99.99
2022-07-25T01:33:53.813Z,99.99
2022-07-25T01:34:53.712Z,99.99
2022-07-25T01:35:53.687Z,99.99
2022-07-25T01:36:53.667Z,99.99
2022-07-25T01:37:53.729Z,99.99
2022-07-25T01:38:54.053Z,99.99
2022-07-25T01:39:53.628Z,99.99
2022-07-25T01:40:53.656Z,99.99
2022-07-25T01:41:53.598Z,99.99
2022-07-25T01:42:53.726Z,99.99
2022-07-25T01:43:53.817Z,99.99
2022-07-25T01:44:53.652Z,99.99
2022-07-25T01:45:53.616Z,99.99
2022-07-25T01:46:53.652Z,99.99
2022-07-25T01:47:53.550Z,99.99
2022-07-25T01:48:53.817Z,99.99
2022-07-25T01:49:53.491Z,99.99
2022-07-25T01:50:53.652Z,99.99
2022-07-25T01:51:53.532Z,99.99
2022-07-25T01:52:53.674Z,99.99
2022-07-25T01:53:53.491Z,99.99
2022-07-25T01:54:53.676Z,99.99
2022-07-25T01:55:53.498Z,99.99
2022-07-25T01:56:53.686Z,99.99
2022-07-25T01:57:53.387Z,99.99
2022-07-25T01:58:53.677Z,99.99
2022-07-25T01:59:53.535Z,99.99
2022-07-25T02:00:53.432Z,99.99
2022-07-25T02:01:53.546Z,99.99
2022-07-25T02:02:53.346Z,99.99
2022-07-25T02:03:53.518Z,99.99
2022-07-25T02:04:53.429Z,99.99
2022-07-25T02:05:53.522Z,99.99
2022-07-25T02:06:53.401Z,99.99
2022-07-25T02:07:53.311Z,99.99
2022-07-25T02:08:53.332Z,99.99
2022-07-25T02:09:56.726Z,99.99
2022-07-25T02:10:53.338Z,99.99
2022-07-25T02:11:53.492Z,99.99
2022-07-25T02:12:53.206Z,99.99
2022-07-25T02:13:53.235Z,99.99
2022-07-25T02:14:53.347Z,99.99
2022-07-25T02:15:53.207Z,99.99
2022-07-25T02:16:53.373Z,99.99
2022-07-25T02:17:53.182Z,99.99
2022-07-25T02:18:53.356Z,99.99
2022-07-25T02:19:53.196Z,99.99
2022-07-25T02:20:53.357Z,99.99
2022-07-25T02:21:53.177Z,99.99
2022-07-25T02:22:53.047Z,99.99
2022-07-25T02:23:53.187Z,99.99
2022-07-25T02:24:53.352Z,99.99
2022-07-25T02:25:53.199Z,99.99
2022-07-25T02:26:52.993Z,99.99
2022-07-25T02:27:53.181Z,99.99
2022-07-25T02:28:53.042Z,99.99
2022-07-25T02:29:53.202Z,99.99
2022-07-25T02:30:53.105Z,99.99
2022-07-25T02:31:52.924Z,99.99
2022-07-25T02:32:53.033Z,99.99
2022-07-25T02:33:52.922Z,99.99
2022-07-25T02:34:53.036Z,99.99
2022-07-25T02:35:52.969Z,99.99
2022-07-25T02:36:52.857Z,99.99
2022-07-25T02:37:52.886Z,99.99
2022-07-25T02:38:52.841Z,99.99
2022-07-25T02:39:52.817Z,99.99
2022-07-25T02:40:52.798Z,99.99
2022-07-25T02:41:52.948Z,99.99
2022-07-25T02:42:52.786Z,99.99
2022-07-25T02:43:52.877Z,99.99
2022-07-25T02:44:52.760Z,99.99
2022-07-25T02:45:53.039Z,99.99
2022-07-25T02:46:53.042Z,99.99
2022-07-25T02:47:53.191Z,99.99
2022-07-25T02:48:52.799Z,99.99
2022-07-25T02:49:52.851Z,99.99
2022-07-25T02:50:52.724Z,99.99
2022-07-25T02:51:52.852Z,99.99
2022-07-25T02:52:52.711Z,99.99
2022-07-25T02:53:58.134Z,99.99
2022-07-25T02:54:52.692Z,99.99
2022-07-25T02:55:52.877Z,99.99
2022-07-25T02:56:52.707Z,99.99
2022-07-25T02:57:52.576Z,99.99
2022-07-25T02:58:52.586Z,99.99
2022-07-25T02:59:52.597Z,99.99
2022-07-25T03:00:52.767Z,99.99
2022-07-25T03:01:52.620Z,99.99
2022-07-25T03:02:52.697Z,99.99
2022-07-25T03:03:52.615Z,99.99
2022-07-25T03:04:52.693Z,99.99
2022-07-25T03:05:52.612Z,99.99
2022-07-25T03:06:52.469Z,99.99
2022-07-25T03:07:52.530Z,99.99
2022-07-25T03:08:52.443Z,99.99
2022-07-25T03:09:52.533Z,99.99
2022-07-25T03:10:52.472Z,99.99
2022-07-25T03:11:52.533Z,99.99
2022-07-25T03:12:52.409Z,99.99
2022-07-25T03:13:52.534Z,99.99
2022-07-25T03:14:52.371Z,99.99
2022-07-25T03:15:52.548Z,99.99
2022-07-25T03:16:52.502Z,99.99
2022-07-25T03:17:52.538Z,99.99
2022-07-25T03:18:52.386Z,99.99
2022-07-25T03:19:52.297Z,99.99
2022-07-25T03:20:52.377Z,99.99
2022-07-25T03:21:52.538Z,99.99
2022-07-25T03:22:52.318Z,99.99
2022-07-25T03:23:52.973Z,99.99
2022-07-25T03:24:52.377Z,99.99
2022-07-25T03:25:52.212Z,99.99
2022-07-25T03:26:52.421Z,99.99
2022-07-25T03:27:52.202Z,99.99
2022-07-25T03:28:52.241Z,99.99
2022-07-25T03:29:52.162Z,99.99
2022-07-25T03:30:52.169Z,99.99
2022-07-25T03:31:52.238Z,99.99
2022-07-25T03:32:52.117Z,99.99
2022-07-25T03:33:52.186Z,99.99
2022-07-25T03:34:52.070Z,99.99
2022-07-25T03:35:52.234Z,99.99
2022-07-25T03:36:52.077Z,99.99
2022-07-25T03:37:52.059Z,99.99
2022-07-25T03:38:52.126Z,99.99
2022-07-25T03:39:52.219Z,99.99
2022-07-25T03:40:52.009Z,99.99
2022-07-25T03:41:51.987Z,99.99
2022-07-25T03:42:51.988Z,99.99
2022-07-25T03:43:51.970Z,99.99
2022-07-25T03:44:52.118Z,99.99
2022-07-25T03:45:52.070Z,99.99
2022-07-25T03:46:52.082Z,99.99
2022-07-25T03:47:51.924Z,99.99
2022-07-25T03:48:52.164Z,99.99
2022-07-25T03:49:51.923Z,99.99
2022-07-25T03:50:51.931Z,99.99
2022-07-25T03:51:51.913Z,99.99
2022-07-25T03:52:51.841Z,99.99
2022-07-25T03:53:51.892Z,99.99
2022-07-25T03:54:51.812Z,99.99
2022-07-25T03:55:51.952Z,99.99
2022-07-25T03:56:51.806Z,99.99
2022-07-25T03:57:51.897Z,99.99
2022-07-25T03:58:51.779Z,99.99
2022-07-25T03:59:51.897Z,99.99
2022-07-25T04:00:51.888Z,99.99
2022-07-25T04:01:52.022Z,99.99
2022-07-25T04:02:51.775Z,99.99
2022-07-25T04:03:51.897Z,99.99
2022-07-25T04:04:51.726Z,99.99
2022-07-25T04:05:51.897Z,99.99
2022-07-25T04:06:51.848Z,99.99
2022-07-25T04:07:51.901Z,99.99
2022-07-25T04:08:51.732Z,99.99
2022-07-25T04:09:51.893Z,99.99
2022-07-25T04:10:51.733Z,99.99
2022-07-25T04:11:51.662Z,99.99
2022-07-25T04:12:51.732Z,99.99
2022-07-25T04:13:51.583Z,99.99
2022-07-25T04:14:51.548Z,99.99
2022-07-25T04:15:51.574Z,99.99
2022-07-25T04:16:51.640Z,99.99
2022-07-25T04:17:51.686Z,99.99
2022-07-25T04:18:51.885Z,99.99
2022-07-25T04:19:51.597Z,99.99
2022-07-25T04:20:51.736Z,99.99
2022-07-25T04:21:51.465Z,99.99
2022-07-25T04:22:51.457Z,99.99
2022-07-25T04:23:51.654Z,99.99
2022-07-25T04:24:51.428Z,99.99
2022-07-25T04:25:51.406Z,99.99
2022-07-25T04:26:51.415Z,99.99
2022-07-25T04:27:51.581Z,99.99
2022-07-25T04:28:51.439Z,99.99
2022-07-25T04:29:51.453Z,99.99
2022-07-25T04:30:51.410Z,99.99
2022-07-25T04:31:51.694Z,99.99
2022-07-25T04:32:51.431Z,99.99
2022-07-25T04:33:51.300Z,99.99
2022-07-25T04:34:51.292Z,99.99
2022-07-25T04:35:51.335Z,99.99
2022-07-25T04:36:51.253Z,99.99
2022-07-25T04:37:51.269Z,99.99
2022-07-25T04:38:51.426Z,99.99
2022-07-25T04:39:51.266Z,99.99
2022-07-25T04:40:51.267Z,99.99
2022-07-25T04:41:51.259Z,99.99
2022-07-25T04:42:51.436Z,99.99
2022-07-25T04:43:51.278Z,99.99
2022-07-25T04:44:51.436Z,99.48
2022-07-25T04:45:51.187Z,99.33
2022-07-25T04:46:51.441Z,99.33
2022-07-25T04:47:51.122Z,99.04
2022-07-25T04:48:51.301Z,98.93
2022-07-25T04:49:51.091Z,98.43
2022-07-25T04:50:51.124Z,98.22
2022-07-25T04:51:51.271Z,97.88
2022-07-25T04:52:51.091Z,97.88
2022-07-25T04:53:51.057Z,97.88
2022-07-25T04:54:51.011Z,97.78
2022-07-25T04:55:51.025Z,97.78
2022-07-25T04:56:51.091Z,97.43
2022-07-25T04:57:51.345Z,97.33
2022-07-25T04:58:51.105Z,96.72
2022-07-25T04:59:50.957Z,96.62
2022-07-25T05:00:51.195Z,96.32
2022-07-25T05:01:51.007Z,95.81
2022-07-25T05:02:50.986Z,95.77
2022-07-25T05:03:50.982Z,95.47
2022-07-25T05:04:52.106Z,95.62
2022-07-25T05:05:50.959Z,95.53
2022-07-25T05:06:51.085Z,94.87
2022-07-25T05:07:51.006Z,94.27
2022-07-25T05:08:51.107Z,93.77
2022-07-25T05:09:50.941Z,93.62
2022-07-25T05:10:51.120Z,93.08
2022-07-25T05:11:55.987Z,92.17
2022-07-25T05:12:51.103Z,91.83
2022-07-25T05:13:51.012Z,90.17
2022-07-25T05:14:50.771Z,89.53
2022-07-25T05:15:50.951Z,88.54
2022-07-25T05:16:50.904Z,86.11
2022-07-25T05:17:50.931Z,81.25
2022-07-25T05:18:50.855Z,76.77
2022-07-25T05:19:50.936Z,74.84
2022-07-25T05:20:50.785Z,70.45
2022-07-25T05:21:50.691Z,67.77
2022-07-25T05:22:50.786Z,66.88
2022-07-25T05:23:50.716Z,63.92
2022-07-25T05:24:50.798Z,62.57
2022-07-25T05:25:50.619Z,61.75
2022-07-25T05:26:50.799Z,60.73
2022-07-25T05:27:50.576Z,59.29
2022-07-25T05:28:50.784Z,59.59
2022-07-25T05:29:50.614Z,58.89
2022-07-25T05:30:50.771Z,57.88
2022-07-25T05:31:50.603Z,59.16
2022-07-25T05:32:50.774Z,58.57
2022-07-25T05:33:50.484Z,58.97
2022-07-25T05:34:50.842Z,58.37
2022-07-25T05:35:50.611Z,57.06
2022-07-25T05:36:50.466Z,56.87
2022-07-25T05:37:50.467Z,58.45
2022-07-25T05:38:50.448Z,56.45
2022-07-25T05:39:50.436Z,56.91
2022-07-25T05:40:50.536Z,56.29
2022-07-25T05:41:50.406Z,56.10
2022-07-25T05:42:50.390Z,56.39
2022-07-25T05:43:50.617Z,55.90
2022-07-25T05:44:50.476Z,55.38
2022-07-25T05:45:50.406Z,56.07
2022-07-25T05:46:50.427Z,55.45
2022-07-25T05:47:50.339Z,55.33
2022-07-25T05:48:50.403Z,53.83
2022-07-25T05:49:50.292Z,53.90
2022-07-25T05:50:50.389Z,53.31
2022-07-25T05:51:50.327Z,52.30
2022-07-25T05:52:50.271Z,51.72
2022-07-25T05:53:50.311Z,52.96
2022-07-25T05:54:50.240Z,51.66
2022-07-25T05:55:50.291Z,49.90
2022-07-25T05:56:50.276Z,50.71
2022-07-25T05:57:50.222Z,49.82
2022-07-25T05:58:50.197Z,51.27
2022-07-25T05:59:50.311Z,52.03
2022-07-25T06:00:50.457Z,52.76
2022-07-25T06:01:50.356Z,50.73
2022-07-25T06:02:50.414Z,51.39
2022-07-25T06:03:50.317Z,50.42
2022-07-25T06:04:50.161Z,51.76
2022-07-25T06:05:50.132Z,51.44
2022-07-25T06:06:50.162Z,51.54
2022-07-25T06:07:50.081Z,50.63
2022-07-25T06:08:50.472Z,51.39
2022-07-25T06:09:50.070Z,50.61
2022-07-25T06:10:50.150Z,51.07
2022-07-25T06:11:59.902Z,48.75
2022-07-25T06:12:50.018Z,49.02
2022-07-25T06:13:50.106Z,50.56
2022-07-25T06:14:50.137Z,49.87
2022-07-25T06:15:50.004Z,50.17
2022-07-25T06:16:50.317Z,48.26
2022-07-25T06:17:49.982Z,48.05
2022-07-25T06:18:50.145Z,46.80
2022-07-25T06:19:50.064Z,48.38
2022-07-25T06:20:50.149Z,48.94
2022-07-25T06:21:49.986Z,48.82
2022-07-25T06:22:50.267Z,48.11
2022-07-25T06:23:49.993Z,49.85
2022-07-25T06:24:49.881Z,49.75
2022-07-25T06:25:50.654Z,50.63
2022-07-25T06:26:49.865Z,49.14
2022-07-25T06:27:49.971Z,48.05
2022-07-25T06:28:49.880Z,49.29
2022-07-25T06:29:49.971Z,50.20
2022-07-25T06:30:49.820Z,47.92
2022-07-25T06:31:50.155Z,49.00
2022-07-25T06:32:49.811Z,46.75
2022-07-25T06:33:50.321Z,46.26
2022-07-25T06:34:49.806Z,47.90
2022-07-25T06:35:49.977Z,47.49
2022-07-25T06:36:49.837Z,47.49
2022-07-25T06:37:49.966Z,47.39
2022-07-25T06:38:49.817Z,47.58
2022-07-25T06:39:49.801Z,49.34
2022-07-25T06:40:49.817Z,46.95
2022-07-25T06:41:49.660Z,48.54
2022-07-25T06:42:49.810Z,47.27
2022-07-25T06:43:49.651Z,47.27
2022-07-25T06:44:49.810Z,46.53
2022-07-25T06:45:49.667Z,47.71
2022-07-25T06:46:50.178Z,46.10
2022-07-25T06:47:49.651Z,47.36
2022-07-25T06:48:49.954Z,48.12
2022-07-25T06:49:49.575Z,48.90
2022-07-25T06:50:49.616Z,47.73
2022-07-25T06:51:49.545Z,47.63
2022-07-25T06:52:49.554Z,46.92
2022-07-25T06:53:49.680Z,47.49
2022-07-25T06:54:49.495Z,46.10
2022-07-25T06:55:49.644Z,44.89
2022-07-25T06:56:49.565Z,44.26
2022-07-25T06:57:49.505Z,42.19
2022-07-25T06:58:49.492Z,43.77
2022-07-25T06:59:49.452Z,42.39
2022-07-25T07:00:49.556Z,42.95
2022-07-25T07:01:51.808Z,45.01
2022-07-25T07:02:49.807Z,43.05
2022-07-25T07:03:49.727Z,41.28
2022-07-25T07:04:49.492Z,41.47
2022-07-25T07:05:49.397Z,42.43
2022-07-25T07:06:49.419Z,41.14
2022-07-25T07:07:49.355Z,40.56
2022-07-25T07:08:49.816Z,40.95
2022-07-25T07:09:49.335Z,40.92
2022-07-25T07:10:49.496Z,40.09
2022-07-25T07:11:49.347Z,41.77
2022-07-25T07:12:49.286Z,41.38
2022-07-25T07:13:49.351Z,41.38
2022-07-25T07:14:49.625Z,42.03
2022-07-25T07:15:49.404Z,42.02
2022-07-25T07:16:49.305Z,41.38
2022-07-25T07:17:49.331Z,40.13
2022-07-25T07:18:49.693Z,42.08
2022-07-25T07:19:49.335Z,42.46
2022-07-25T07:20:49.292Z,41.55
2022-07-25T07:21:49.333Z,41.55
2022-07-25T07:22:49.186Z,40.79
2022-07-25T07:23:49.195Z,41.86
2022-07-25T07:24:49.186Z,43.12
2022-07-25T07:25:49.337Z,41.55
2022-07-25T07:26:49.258Z,41.24
2022-07-25T07:27:49.346Z,40.64
2022-07-25T07:28:49.167Z,41.39
2022-07-25T07:29:49.346Z,40.61
2022-07-25T07:31:49.591Z,38.12
2022-07-25T07:32:49.204Z,40.95
2022-07-25T07:33:49.088Z,38.91
2022-07-25T07:34:49.171Z,39.11
2022-07-25T07:35:49.045Z,39.78
2022-07-25T07:36:49.011Z,40.25
2022-07-25T07:37:49.083Z,39.08
2022-07-25T07:38:48.961Z,40.03
2022-07-25T07:39:49.037Z,40.81
2022-07-25T07:40:49.186Z,39.36
2022-07-25T07:41:49.029Z,39.82
2022-07-25T07:42:49.246Z,40.62
2022-07-25T07:43:49.027Z,41.69
2022-07-25T07:44:49.177Z,41.18
2022-07-25T07:45:49.036Z,39.51
2022-07-25T07:46:49.001Z,40.48
2022-07-25T07:47:49.111Z,39.88
2022-07-25T07:48:48.996Z,39.22
2022-07-25T07:49:50.467Z,39.49
2022-07-25T07:50:48.870Z,39.98
2022-07-25T07:51:49.039Z,38.52
2022-07-25T07:52:48.884Z,39.41
2022-07-25T07:53:49.108Z,39.03
2022-07-25T07:54:48.801Z,40.17
2022-07-25T07:55:48.916Z,38.32
2022-07-25T07:56:48.867Z,39.41
2022-07-25T07:57:49.016Z,40.09
2022-07-25T07:58:49.202Z,40.05
2022-07-25T07:59:48.756Z,38.52
2022-07-25T08:00:48.871Z,39.92
2022-07-25T08:01:48.830Z,40.46
2022-07-25T08:02:48.936Z,40.25
2022-07-25T08:03:48.762Z,38.12
2022-07-25T08:04:48.710Z,38.58
2022-07-25T08:05:48.690Z,41.88
2022-07-25T08:06:48.676Z,38.19
2022-07-25T08:07:48.670Z,38.95
2022-07-25T08:08:48.665Z,40.11
2022-07-25T08:09:48.703Z,39.29
2022-07-25T08:10:48.691Z,40.25
2022-07-25T08:11:48.626Z,40.89
2022-07-25T08:12:48.640Z,39.51
2022-07-25T08:13:48.701Z,37.59
2022-07-25T08:14:48.597Z,40.09
2022-07-25T08:15:48.794Z,36.98
2022-07-25T08:16:48.616Z,38.27
2022-07-25T08:17:48.548Z,37.13
2022-07-25T08:18:48.575Z,39.45
2022-07-25T08:19:48.527Z,40.15
2022-07-25T08:20:48.560Z,39.24
2022-07-25T08:21:48.573Z,40.69
2022-07-25T08:22:50.871Z,40.11
2022-07-25T08:23:48.505Z,39.70
2022-07-25T08:24:48.530Z,40.34
2022-07-25T08:25:48.450Z,38.96
2022-07-25T08:26:48.632Z,38.02
2022-07-25T08:27:48.720Z,39.51
2022-07-25T08:28:59.850Z,38.73
2022-07-25T08:29:48.416Z,38.73
2022-07-25T08:30:48.624Z,39.61
2022-07-25T08:31:48.463Z,40.26
2022-07-25T08:32:48.425Z,42.60
2022-07-25T08:33:48.437Z,39.39
2022-07-25T08:34:48.347Z,39.08
2022-07-25T08:35:48.377Z,39.74
2022-07-25T08:36:48.566Z,39.32
2022-07-25T08:37:48.406Z,40.97
2022-07-25T08:38:48.633Z,39.59
2022-07-25T08:39:48.372Z,39.37
2022-07-25T08:40:48.530Z,38.96
2022-07-25T08:41:48.371Z,41.35
2022-07-25T08:42:48.551Z,38.91
2022-07-25T08:43:48.401Z,40.03
2022-07-25T08:44:48.312Z,39.62
2022-07-25T08:45:48.395Z,38.81
2022-07-25T08:46:48.294Z,38.12
2022-07-25T08:47:48.188Z,38.31
2022-07-25T08:48:48.303Z,39.59
2022-07-25T08:49:48.376Z,37.07
2022-07-25T08:50:48.313Z,38.12
2022-07-25T08:51:51.782Z,36.78
2022-07-25T08:52:48.215Z,39.88
2022-07-25T08:53:48.789Z,40.94
2022-07-25T08:54:48.242Z,40.05
2022-07-25T08:55:48.161Z,40.46
2022-07-25T08:56:48.246Z,37.75
2022-07-25T08:57:48.081Z,37.94
2022-07-25T08:58:48.210Z,39.59
2022-07-25T08:59:48.052Z,41.60
2022-07-25T09:00:48.283Z,37.54
2022-07-25T09:01:48.190Z,38.20
2022-07-25T09:02:48.058Z,38.58
2022-07-25T09:03:48.056Z,38.56
2022-07-25T09:04:48.216Z,39.11
2022-07-25T09:05:48.077Z,38.23
2022-07-25T09:06:48.005Z,38.19
2022-07-25T09:07:48.056Z,39.45
2022-07-25T09:08:48.216Z,39.76
2022-07-25T09:09:48.071Z,39.20
2022-07-25T09:10:48.222Z,39.61
2022-07-25T09:11:47.914Z,41.26
2022-07-25T09:12:48.021Z,40.89
2022-07-25T09:13:47.928Z,41.18
2022-07-25T09:14:47.900Z,42.23
2022-07-25T09:15:47.854Z,41.14
2022-07-25T09:16:47.858Z,39.98
2022-07-25T09:17:47.857Z,41.33
2022-07-25T09:18:47.906Z,42.91
2022-07-25T09:19:47.816Z,41.24
2022-07-25T09:20:47.917Z,41.57
2022-07-25T09:21:47.796Z,42.60
2022-07-25T09:22:47.777Z,40.15
2022-07-25T09:23:47.777Z,41.58
2022-07-25T09:24:47.923Z,38.85
2022-07-25T09:25:47.785Z,39.51
2022-07-25T09:26:47.740Z,38.73
2022-07-25T09:27:47.762Z,40.67
2022-07-25T09:28:47.745Z,40.28
2022-07-25T09:29:47.703Z,40.31
2022-07-25T09:30:47.827Z,40.33
2022-07-25T09:31:47.989Z,41.00
2022-07-25T09:32:47.669Z,42.75
2022-07-25T09:33:47.763Z,40.81
2022-07-25T09:34:47.634Z,41.41
2022-07-25T09:35:47.716Z,40.56
2022-07-25T09:36:47.619Z,41.12
2022-07-25T09:37:47.745Z,41.55
2022-07-25T09:38:47.596Z,42.10
2022-07-25T09:39:48.399Z,39.62
2022-07-25T09:40:47.602Z,40.97
2022-07-25T09:41:47.797Z,43.21
2022-07-25T09:42:47.582Z,43.30
2022-07-25T09:43:47.759Z,44.81
2022-07-25T09:44:47.571Z,43.87
2022-07-25T09:45:47.752Z,43.24
2022-07-25T09:46:47.728Z,42.44
2022-07-25T09:47:47.726Z,43.40
2022-07-25T09:48:47.694Z,44.46
2022-07-25T09:49:47.471Z,44.81
2022-07-25T09:50:47.585Z,42.26
2022-07-25T09:51:47.445Z,41.08
2022-07-25T09:52:47.646Z,41.68
2022-07-25T09:53:47.417Z,41.68
2022-07-25T09:54:47.566Z,40.69
2022-07-25T09:55:47.408Z,40.61
2022-07-25T09:56:47.583Z,41.83
2022-07-25T09:57:47.492Z,39.32
2022-07-25T09:58:47.352Z,39.90
2022-07-25T09:59:47.449Z,41.61
2022-07-25T10:00:47.576Z,45.17
2022-07-25T10:01:47.522Z,44.54
2022-07-25T10:02:47.379Z,41.92
2022-07-25T10:03:47.507Z,41.55
2022-07-25T10:04:47.297Z,43.41
2022-07-25T10:05:47.430Z,44.41
2022-07-25T10:06:47.257Z,42.66
2022-07-25T10:07:47.416Z,43.40
2022-07-25T10:08:47.277Z,41.80
2022-07-25T10:09:47.485Z,40.79
2022-07-25T10:10:47.246Z,40.58
2022-07-25T10:11:47.403Z,40.28
2022-07-25T10:12:47.288Z,40.89
2022-07-25T10:13:47.432Z,42.75
2022-07-25T10:14:47.262Z,41.17
2022-07-25T10:15:47.211Z,44.26
2022-07-25T10:16:47.421Z,41.33
2022-07-25T10:17:47.116Z,41.72
2022-07-25T10:18:47.245Z,40.75
2022-07-25T10:19:51.776Z,40.17
2022-07-25T10:20:47.405Z,40.28
2022-07-25T10:21:47.086Z,42.71
2022-07-25T10:22:56.186Z,43.65
2022-07-25T10:23:47.116Z,44.55
2022-07-25T10:24:47.490Z,43.82
2022-07-25T10:25:49.188Z,45.72
2022-07-25T10:26:47.086Z,44.84
2022-07-25T10:27:47.031Z,44.58
2022-07-25T10:28:47.031Z,42.91
2022-07-25T10:29:46.992Z,42.60
2022-07-25T10:30:47.030Z,42.21
2022-07-25T10:31:51.078Z,43.16
2022-07-25T10:32:47.021Z,43.62
2022-07-25T10:33:46.955Z,41.76
2022-07-25T10:34:46.956Z,40.50
2022-07-25T10:35:46.936Z,41.76
2022-07-25T10:36:46.941Z,41.61
2022-07-25T10:37:49.137Z,42.96
2022-07-25T10:38:46.946Z,40.91
2022-07-25T10:39:46.877Z,41.58
2022-07-25T10:40:46.939Z,41.76
2022-07-25T10:41:46.847Z,42.07
2022-07-25T10:42:46.941Z,41.39
2022-07-25T10:43:48.691Z,41.49
2022-07-25T10:44:46.953Z,41.27
2022-07-25T10:45:46.856Z,41.72
2022-07-25T10:46:46.812Z,42.08
2022-07-25T10:47:46.772Z,42.49
2022-07-25T10:48:46.974Z,42.10
2022-07-25T10:50:13.531Z,41.06
2022-07-25T10:50:55.393Z,41.06
2022-07-25T10:51:46.782Z,41.37
2022-07-25T10:52:46.938Z,42.55
2022-07-25T10:53:46.791Z,42.86
2022-07-25T10:54:46.757Z,42.85
2022-07-25T10:55:59.817Z,42.14
2022-07-25T10:56:46.947Z,43.29
2022-07-25T10:58:15.249Z,40.38
2022-07-25T10:58:46.683Z,40.77
2022-07-25T10:59:46.791Z,41.08
2022-07-25T11:00:46.731Z,46.48
2022-07-25T11:01:46.835Z,43.02
2022-07-25T11:02:46.651Z,42.92
2022-07-25T11:03:46.772Z,44.01
2022-07-25T11:04:46.611Z,43.06
2022-07-25T11:05:46.776Z,44.30
2022-07-25T11:06:46.687Z,43.21
2022-07-25T11:08:11.166Z,42.20
2022-07-25T11:08:46.625Z,42.86
2022-07-25T11:09:46.537Z,40.86
2022-07-25T11:10:46.616Z,40.86
2022-07-25T11:11:46.566Z,42.10
2022-07-25T11:12:46.636Z,40.17
2022-07-25T11:13:46.466Z,42.61
2022-07-25T11:14:46.637Z,42.22
2022-07-25T11:15:46.472Z,40.96
2022-07-25T11:16:46.743Z,42.49
2022-07-25T11:17:46.535Z,41.93
2022-07-25T11:18:46.621Z,41.45
2022-07-25T11:19:46.485Z,42.36
2022-07-25T11:20:46.425Z,42.09
2022-07-25T11:21:46.450Z,41.41
2022-07-25T11:22:46.442Z,42.19
2022-07-25T11:23:46.396Z,41.92
2022-07-25T11:24:46.626Z,41.70
2022-07-25T11:25:46.452Z,41.51
2022-07-25T11:26:46.335Z,43.06
2022-07-25T11:27:46.466Z,42.03
2022-07-25T11:28:46.368Z,44.17
2022-07-25T11:29:46.315Z,43.32
2022-07-25T11:30:46.291Z,44.09
2022-07-25T11:31:46.606Z,42.44
2022-07-25T11:32:46.294Z,43.22
2022-07-25T11:33:46.462Z,47.88
2022-07-25T11:34:46.387Z,42.66
2022-07-25T11:35:46.306Z,44.41
2022-07-25T11:36:46.212Z,44.58
2022-07-25T11:37:46.435Z,42.83
2022-07-25T11:38:46.172Z,42.56
2022-07-25T11:39:46.185Z,43.63
2022-07-25T11:40:46.346Z,42.39
2022-07-25T11:41:46.187Z,42.41
2022-07-25T11:42:46.316Z,43.30
2022-07-25T11:43:46.156Z,43.09
2022-07-25T11:44:48.084Z,43.05
2022-07-25T11:45:46.158Z,43.10
2022-07-25T11:46:46.167Z,41.43
2022-07-25T11:47:46.076Z,42.02
2022-07-25T11:48:46.167Z,40.85
2022-07-25T11:49:46.152Z,41.22
2022-07-25T11:50:46.066Z,41.08
2022-07-25T11:51:46.032Z,41.45
2022-07-25T11:52:46.111Z,42.78
2022-07-25T11:53:46.013Z,42.59
2022-07-25T11:54:45.991Z,40.77
2022-07-25T11:55:45.981Z,39.70
2022-07-25T11:56:45.972Z,40.17
2022-07-25T11:57:45.956Z,40.11
2022-07-25T11:58:46.047Z,42.07
2022-07-25T11:59:46.142Z,43.54
2022-07-25T12:00:46.073Z,44.15
2022-07-25T12:01:45.906Z,45.17
2022-07-25T12:02:46.112Z,44.89
2022-07-25T12:03:45.925Z,45.31
2022-07-25T12:04:46.026Z,45.74
2022-07-25T12:05:45.941Z,47.42
2022-07-25T12:06:46.010Z,45.71
2022-07-25T12:07:45.871Z,45.64
2022-07-25T12:08:45.830Z,45.17
2022-07-25T12:09:45.845Z,45.48
2022-07-25T12:10:46.006Z,45.78
2022-07-25T12:11:45.890Z,46.56
2022-07-25T12:12:45.751Z,46.56
2022-07-25T12:13:45.827Z,46.39
2022-07-25T12:14:45.977Z,47.27
2022-07-25T12:15:45.816Z,47.48
2022-07-25T12:16:45.948Z,51.49
2022-07-25T12:17:45.846Z,49.63
2022-07-25T12:18:45.697Z,48.07
2022-07-25T12:19:45.688Z,48.85
2022-07-25T12:20:45.965Z,49.71
2022-07-25T12:21:45.796Z,46.97
2022-07-25T12:22:45.771Z,52.12
2022-07-25T12:23:45.811Z,47.66
2022-07-25T12:24:45.685Z,49.51
2022-07-25T12:25:45.610Z,47.36
2022-07-25T12:26:45.652Z,46.68
2022-07-25T12:27:45.571Z,48.14
2022-07-25T12:28:45.732Z,48.14
2022-07-25T12:29:45.811Z,47.17
2022-07-25T12:30:45.850Z,47.56
2022-07-25T12:31:45.827Z,49.32
2022-07-25T12:32:45.676Z,49.10
2022-07-25T12:33:45.545Z,49.98
2022-07-25T12:34:46.736Z,46.66
2022-07-25T12:35:45.466Z,48.80
2022-07-25T12:36:45.657Z,47.34
2022-07-25T12:37:45.457Z,48.32
2022-07-25T12:38:45.527Z,47.75
2022-07-25T12:39:45.545Z,49.39
2022-07-25T12:40:45.734Z,48.22
2022-07-25T12:41:45.487Z,45.68
2022-07-25T12:42:45.403Z,44.90
2022-07-25T12:43:45.496Z,46.56
2022-07-25T12:44:45.674Z,46.88
2022-07-25T12:45:45.656Z,46.46
2022-07-25T12:46:49.479Z,47.46
2022-07-25T12:47:45.390Z,45.31
2022-07-25T12:48:45.431Z,45.80
2022-07-25T12:49:45.325Z,46.70
2022-07-25T12:50:45.316Z,46.11
2022-07-25T12:51:45.578Z,48.46
2022-07-25T12:52:45.292Z,48.94
2022-07-25T12:53:45.277Z,47.75